Time;durP1;ratioP1;P1;durP2;ratioP2;P2;SDS_P1;SDS_P2;PMS_P1;PMS_P2;Temp;Humidity;BMP_temperature;BMP_pressure;BME280_temperature;BME280_humidity;BME280_pressure;Samples;Min_cycle;Max_cycle;Signal;HPM_P1;HPM_P2
2021/04/30 00:00:19;;;;;;;10.10;8.93;;;;;20.30;99956.00;;;;2072718;28;20211;-72
2021/04/30 00:01:20;;;;;;;8.80;7.80;;;;;20.20;99956.00;;;;2080675;28;20213;-73
2021/04/30 00:02:20;;;;;;;9.30;8.07;;;;;20.30;99957.00;;;;2081433;28;20276;-72
2021/04/30 00:03:20;;;;;;;9.30;8.40;;;;;20.30;99958.00;;;;2080488;28;20229;-72
2021/04/30 00:04:21;;;;;;;10.60;8.20;;;;;20.20;99950.00;;;;2072452;28;20214;-72
2021/04/30 00:05:21;;;;;;;8.57;7.33;;;;;20.20;99952.00;;;;2072637;28;20719;-72
2021/04/30 00:06:22;;;;;;;8.40;7.60;;;;;20.20;99952.00;;;;2072590;28;20466;-72
2021/04/30 00:07:22;;;;;;;9.43;8.13;;;;;20.20;99942.00;;;;2080644;28;20228;-72
2021/04/30 00:08:22;;;;;;;8.33;7.43;;;;;20.20;99952.00;;;;2080590;28;20229;-73
2021/04/30 00:09:23;;;;;;;7.60;6.80;;;;;20.20;99954.00;;;;2080410;28;20217;-72
2021/04/30 00:10:24;;;;;;;7.43;6.67;;;;;20.20;99937.00;;;;2079472;28;20217;-72
2021/04/30 00:11:24;;;;;;;8.77;7.63;;;;;20.20;99952.00;;;;2072213;28;20211;-71
2021/04/30 00:12:25;;;;;;;7.50;6.57;;;;;20.20;99943.00;;;;2065047;28;20579;-71
2021/04/30 00:13:25;;;;;;;8.90;7.37;;;;;20.20;99954.00;;;;2071984;28;20219;-72
2021/04/30 00:14:25;;;;;;;8.73;7.70;;;;;20.20;99952.00;;;;2064224;28;20294;-71
2021/04/30 00:15:26;;;;;;;8.43;7.10;;;;;20.20;99957.00;;;;2080444;28;20635;-71
2021/04/30 00:16:26;;;;;;;8.43;7.23;;;;;20.20;99962.00;;;;2080741;28;20736;-71
2021/04/30 00:17:26;;;;;;;10.57;7.10;;;;;20.20;99955.00;;;;2081411;28;20261;-71
2021/04/30 00:18:27;;;;;;;8.73;7.80;;;;;20.20;99952.00;;;;2080604;28;20205;-72
2021/04/30 00:19:27;;;;;;;7.63;6.83;;;;;20.20;99959.00;;;;2080068;28;20681;-71
2021/04/30 00:20:27;;;;;;;8.23;6.83;;;;;20.20;99957.00;;;;2080747;28;20206;-72
2021/04/30 00:21:29;;;;;;;8.00;6.97;;;;;20.20;99959.00;;;;2081844;28;20206;-71
2021/04/30 00:22:29;;;;;;;8.25;7.45;;;;;20.20;99966.00;;;;2081545;28;20323;-72
2021/04/30 00:23:32;;;;;;;7.50;6.70;;;;;20.20;99971.00;;;;2073088;28;20210;-71
2021/04/30 00:24:32;;;;;;;8.27;6.80;;;;;20.20;99962.00;;;;2078760;28;20230;-72
2021/04/30 00:25:32;;;;;;;7.63;6.47;;;;;20.20;99961.00;;;;2084695;28;20963;-72
2021/04/30 00:26:33;;;;;;;8.73;6.83;;;;;20.20;99969.00;;;;2080730;28;20692;-72
2021/04/30 00:27:33;;;;;;;9.67;6.73;;;;;20.20;99967.00;;;;2072241;28;20767;-72
2021/04/30 00:28:33;;;;;;;8.00;7.20;;;;;20.20;99963.00;;;;2072163;28;20214;-72
2021/04/30 00:29:34;;;;;;;8.00;7.20;;;;;20.20;99959.00;;;;2080199;28;20210;-72
2021/04/30 00:30:34;;;;;;;9.30;7.20;;;;;20.20;99957.00;;;;2072228;28;20233;-70
2021/04/30 00:31:35;;;;;;;8.07;6.70;;;;;20.20;99956.00;;;;2055966;28;20220;-71
2021/04/30 00:32:35;;;;;;;7.70;6.40;;;;;20.20;99958.00;;;;2063857;28;20214;-71
2021/04/30 00:33:36;;;;;;;7.80;7.00;;;;;20.10;99959.00;;;;2055921;28;20227;-71
2021/04/30 00:34:36;;;;;;;8.00;6.50;;;;;20.20;99962.00;;;;2055679;28;20223;-71
2021/04/30 00:35:36;;;;;;;9.80;7.47;;;;;20.20;99959.00;;;;2072046;28;20215;-72
2021/04/30 00:36:37;;;;;;;7.77;6.10;;;;;20.20;99963.00;;;;2080342;28;20306;-71
2021/04/30 00:37:38;;;;;;;8.30;6.43;;;;;20.10;99950.00;;;;2080926;28;20692;-71
2021/04/30 00:38:38;;;;;;;7.27;6.47;;;;;20.20;99954.00;;;;2080935;28;20210;-72
2021/04/30 00:39:38;;;;;;;7.07;6.33;;;;;20.20;99959.00;;;;2080881;28;20898;-72
2021/04/30 00:40:39;;;;;;;7.70;6.90;;;;;20.20;99963.00;;;;2080385;28;20202;-72
2021/04/30 00:41:41;;;;;;;7.00;6.23;;;;;20.20;99957.00;;;;2071897;28;20266;-72
2021/04/30 00:42:41;;;;;;;6.40;5.80;;;;;20.00;99956.00;;;;2072150;28;20682;-71
2021/04/30 00:43:42;;;;;;;7.50;6.77;;;;;20.20;99962.00;;;;2072379;28;20215;-72
2021/04/30 00:44:45;;;;;;;7.13;5.90;;;;;20.20;99964.00;;;;2071725;28;20206;-72
2021/04/30 00:45:45;;;;;;;7.65;6.30;;;;;20.20;99966.00;;;;2068765;28;20301;-72
2021/04/30 00:46:45;;;;;;;7.27;6.53;;;;;20.10;99971.00;;;;2080437;28;20214;-71
2021/04/30 00:47:46;;;;;;;6.07;5.57;;;;;20.10;99966.00;;;;2072217;28;20672;-72
2021/04/30 00:48:46;;;;;;;7.20;6.50;;;;;20.10;99966.00;;;;2080355;28;20623;-72
2021/04/30 00:49:46;;;;;;;6.80;6.10;;;;;20.20;99973.00;;;;2080354;28;20215;-71
2021/04/30 00:50:47;;;;;;;6.53;5.93;;;;;20.20;99962.00;;;;2080230;28;20291;-72
2021/04/30 00:51:47;;;;;;;6.63;6.00;;;;;20.20;99972.00;;;;2072217;28;20554;-71
2021/04/30 00:52:48;;;;;;;6.20;5.60;;;;;20.20;99968.00;;;;2071809;28;20265;-72
2021/04/30 00:53:48;;;;;;;7.07;5.80;;;;;20.20;99973.00;;;;2080835;28;20218;-71
2021/04/30 00:54:48;;;;;;;7.37;6.67;;;;;20.20;99968.00;;;;2080836;28;20704;-72
2021/04/30 00:55:49;;;;;;;7.57;6.87;;;;;20.10;99972.00;;;;2080194;28;20293;-71
2021/04/30 00:56:49;;;;;;;6.97;5.90;;;;;20.10;99969.00;;;;2080239;28;20320;-72
2021/04/30 00:57:57;;;;;;;6.73;6.10;;;;;20.10;99970.00;;;;2080769;28;22392;-72
2021/04/30 00:59:00;;;;;;;7.47;6.38;;;;;20.10;99971.00;;;;2080161;28;20220;-72
2021/04/30 01:00:00;;;;;;;6.75;6.03;;;;;20.10;99981.00;;;;2072199;28;20211;-71
2021/04/30 01:01:01;;;;;;;6.93;6.20;;;;;20.10;99977.00;;;;2054438;28;20222;-71
2021/04/30 01:02:01;;;;;;;7.47;6.23;;;;;20.10;99972.00;;;;2071044;28;20740;-70
2021/04/30 01:03:02;;;;;;;6.23;5.60;;;;;20.10;99975.00;;;;2079976;28;20659;-70
2021/04/30 01:04:02;;;;;;;5.97;5.43;;;;;20.10;99985.00;;;;2071737;28;20207;-71
2021/04/30 01:05:04;;;;;;;6.63;5.97;;;;;20.10;99983.00;;;;2063659;28;20462;-71
2021/04/30 01:06:05;;;;;;;6.95;6.22;;;;;20.10;99984.00;;;;2071752;28;20207;-71
2021/04/30 01:07:05;;;;;;;6.83;6.13;;;;;20.10;99984.00;;;;2080279;28;20214;-71
2021/04/30 01:08:06;;;;;;;6.80;5.30;;;;;20.10;99989.00;;;;2080211;28;20215;-71
2021/04/30 01:09:06;;;;;;;6.67;5.07;;;;;20.10;99988.00;;;;2071390;28;20705;-71
2021/04/30 01:10:07;;;;;;;6.70;6.03;;;;;20.10;99981.00;;;;2062997;28;20298;-71
2021/04/30 01:11:07;;;;;;;6.37;5.70;;;;;20.10;99987.00;;;;2079615;28;20699;-71
2021/04/30 01:12:08;;;;;;;6.70;6.07;;;;;20.10;99977.00;;;;2079858;28;20214;-72
2021/04/30 01:13:12;;;;;;;6.55;5.85;;;;;20.10;99978.00;;;;2071137;28;20293;-71
2021/04/30 01:14:12;;;;;;;7.28;5.53;;;;;20.10;99987.00;;;;2063805;28;20262;-71
2021/04/30 01:15:14;;;;;;;5.70;5.10;;;;;20.10;99987.00;;;;2071570;28;20249;-71
2021/04/30 01:16:14;;;;;;;6.88;6.03;;;;;20.10;99986.00;;;;2079778;28;20301;-72
2021/04/30 01:17:14;;;;;;;6.93;6.23;;;;;20.10;99975.00;;;;2079951;28;20237;-71
2021/04/30 01:18:15;;;;;;;7.40;5.90;;;;;20.10;99992.00;;;;2079958;28;20934;-71
2021/04/30 01:19:25;;;;;;;7.87;6.50;;;;;20.10;99996.00;;;;2080018;28;20212;-71
2021/04/30 01:20:26;;;;;;;6.45;5.72;;;;;20.10;99995.00;;;;2076097;28;20210;-71
2021/04/30 01:21:26;;;;;;;6.57;5.80;;;;;20.10;100000.00;;;;2079895;28;20623;-72
2021/04/30 01:22:34;;;;;;;6.40;5.80;;;;;20.10;99991.00;;;;2080428;28;20676;-72
2021/04/30 01:23:44;;;;;;;6.30;5.70;;;;;20.00;99990.00;;;;2080204;28;20218;-71
2021/04/30 01:24:45;;;;;;;6.82;5.88;;;;;20.00;99999.00;;;;2080543;28;20221;-71
2021/04/30 01:25:45;;;;;;;6.97;6.27;;;;;20.10;99999.00;;;;2080170;28;20217;-71
2021/04/30 01:26:45;;;;;;;5.90;5.40;;;;;20.10;100003.00;;;;2079700;28;20684;-72
2021/04/30 01:27:46;;;;;;;5.40;4.87;;;;;20.00;100008.00;;;;2071300;28;20250;-72
2021/04/30 01:28:46;;;;;;;7.30;5.83;;;;;20.00;100007.00;;;;2071166;28;20701;-71
2021/04/30 01:29:47;;;;;;;6.13;5.53;;;;;20.10;99999.00;;;;2079472;28;20222;-71
2021/04/30 01:30:47;;;;;;;6.00;5.50;;;;;20.10;100007.00;;;;2079562;28;20350;-71
2021/04/30 01:31:47;;;;;;;6.20;5.60;;;;;20.00;99995.00;;;;2079285;28;20218;-72
2021/04/30 01:32:48;;;;;;;5.87;5.27;;;;;20.00;100000.00;;;;2078890;28;20230;-71
2021/04/30 01:33:55;;;;;;;5.10;4.70;;;;;20.00;100003.00;;;;2070985;28;20246;-71
2021/04/30 01:34:55;;;;;;;6.03;5.15;;;;;20.00;100005.00;;;;2062799;28;20220;-71
2021/04/30 01:35:56;;;;;;;5.40;4.90;;;;;20.00;100000.00;;;;2063162;28;20228;-71
2021/04/30 01:36:56;;;;;;;6.47;5.87;;;;;20.00;100003.00;;;;2063598;28;20641;-71
2021/04/30 01:37:57;;;;;;;7.27;5.90;;;;;20.00;100008.00;;;;2063575;28;20705;-71
2021/04/30 01:38:58;;;;;;;6.40;5.80;;;;;20.00;100013.00;;;;2079791;28;20672;-72
2021/04/30 01:39:58;;;;;;;6.35;5.10;;;;;20.00;100011.00;;;;2079593;28;20929;-71
2021/04/30 01:40:59;;;;;;;5.63;5.03;;;;;20.00;100012.00;;;;2079785;28;20220;-71
2021/04/30 01:41:59;;;;;;;5.73;4.97;;;;;20.00;100011.00;;;;2079729;28;20217;-71
2021/04/30 01:43:05;;;;;;;5.87;5.37;;;;;20.00;100009.00;;;;2062492;28;20311;-71
2021/04/30 01:44:06;;;;;;;6.72;5.60;;;;;20.00;100008.00;;;;2072677;28;20242;-71
2021/04/30 01:45:07;;;;;;;5.97;5.38;;;;;20.00;100007.00;;;;2079800;28;20212;-71
2021/04/30 01:46:08;;;;;;;6.20;5.60;;;;;20.00;100016.00;;;;2079467;28;20296;-70
2021/04/30 01:47:08;;;;;;;6.37;4.87;;;;;20.00;100008.00;;;;2080433;28;20505;-71
2021/04/30 01:48:14;;;;;;;6.43;5.83;;;;;20.00;100016.00;;;;2080571;28;20210;-71
2021/04/30 01:49:15;;;;;;;5.07;4.57;;;;;20.00;100012.00;;;;2079580;28;20210;-72
2021/04/30 01:50:15;;;;;;;6.30;5.70;;;;;20.00;100017.00;;;;2071910;28;20211;-71
2021/04/30 01:51:15;;;;;;;5.87;5.17;;;;;20.00;100013.00;;;;2071464;28;20345;-71
2021/04/30 01:52:16;;;;;;;6.00;5.50;;;;;20.00;100015.00;;;;2071501;28;20218;-71
2021/04/30 01:53:21;;;;;;;6.23;5.57;;;;;20.00;100016.00;;;;2070594;28;20290;-71
2021/04/30 01:54:21;;;;;;;6.35;5.45;;;;;20.00;100008.00;;;;2063442;28;20704;-71
2021/04/30 01:55:25;;;;;;;5.87;5.30;;;;;20.00;100006.00;;;;2060673;28;20215;-71
2021/04/30 01:56:25;;;;;;;5.88;5.32;;;;;20.00;100017.00;;;;2071561;28;20273;-71
2021/04/30 01:57:26;;;;;;;6.00;5.30;;;;;20.00;100023.00;;;;2079627;28;20783;-71
2021/04/30 01:58:26;;;;;;;5.90;5.30;;;;;20.00;100014.00;;;;2079700;28;20611;-71
2021/04/30 01:59:27;;;;;;;6.13;5.53;;;;;20.00;100016.00;;;;2079655;28;20575;-72
2021/04/30 02:00:27;;;;;;;5.73;5.10;;;;;20.00;100011.00;;;;2079230;28;20202;-71
2021/04/30 02:01:27;;;;;;;5.90;5.30;;;;;20.00;100025.00;;;;2071539;28;20218;-72
2021/04/30 02:02:45;;;;;;;6.67;6.00;;;;;20.00;100023.00;;;;2079559;28;20210;-72
2021/04/30 02:03:45;;;;;;;6.22;5.63;;;;;20.00;100017.00;;;;2076930;28;20296;-71
2021/04/30 02:04:45;;;;;;;5.67;5.10;;;;;20.00;100017.00;;;;2072141;28;20272;-71
2021/04/30 02:05:46;;;;;;;8.00;5.70;;;;;20.00;100011.00;;;;2079396;28;20214;-71
2021/04/30 02:06:46;;;;;;;6.20;5.67;;;;;20.00;99999.00;;;;2080121;28;20279;-71
2021/04/30 02:07:47;;;;;;;6.10;5.43;;;;;20.00;100031.00;;;;2071349;28;20215;-71
2021/04/30 02:08:48;;;;;;;5.90;5.40;;;;;20.00;100026.00;;;;2063266;28;20223;-71
2021/04/30 02:09:48;;;;;;;5.93;5.43;;;;;20.00;100027.00;;;;2079615;28;20245;-71
2021/04/30 02:10:49;;;;;;;7.50;5.80;;;;;20.00;100026.00;;;;2079920;28;20596;-71
2021/04/30 02:11:50;;;;;;;5.47;4.97;;;;;20.00;100023.00;;;;2079608;28;20643;-71
2021/04/30 02:12:51;;;;;;;6.23;5.63;;;;;20.00;100024.00;;;;2079385;28;20214;-71
2021/04/30 02:13:51;;;;;;;5.75;5.20;;;;;20.00;100020.00;;;;2070781;28;20285;-71
2021/04/30 02:14:52;;;;;;;5.90;5.17;;;;;20.00;100010.00;;;;2071685;28;20783;-71
2021/04/30 02:15:55;;;;;;;6.60;5.90;;;;;20.00;100030.00;;;;2079614;28;20312;-72
2021/04/30 02:16:55;;;;;;;6.45;5.28;;;;;19.90;100029.00;;;;2079404;28;20272;-71
2021/04/30 02:17:56;;;;;;;6.47;5.77;;;;;19.90;100024.00;;;;2080214;28;20601;-71
2021/04/30 02:18:56;;;;;;;6.30;5.70;;;;;20.00;100015.00;;;;2079571;28;20214;-72
2021/04/30 02:19:57;;;;;;;6.40;5.90;;;;;19.90;100018.00;;;;2079610;28;20218;-71
2021/04/30 02:20:57;;;;;;;6.30;5.70;;;;;20.00;100015.00;;;;2080295;28;20585;-71
2021/04/30 02:21:57;;;;;;;6.37;5.80;;;;;20.00;100017.00;;;;2080116;28;20790;-71
2021/04/30 02:22:58;;;;;;;6.20;5.53;;;;;20.00;100026.00;;;;2079921;28;20225;-70
2021/04/30 02:24:00;;;;;;;5.97;5.47;;;;;19.90;100018.00;;;;2079701;28;20276;-71
2021/04/30 02:25:00;;;;;;;6.63;5.78;;;;;19.90;100026.00;;;;2079818;28;20328;-71
2021/04/30 02:26:01;;;;;;;7.67;5.87;;;;;19.90;100019.00;;;;2079595;28;20217;-71
2021/04/30 02:27:01;;;;;;;6.10;5.40;;;;;19.90;100029.00;;;;2079428;28;20214;-71
2021/04/30 02:28:02;;;;;;;6.13;5.50;;;;;20.00;100020.00;;;;2080105;28;20220;-71
2021/04/30 02:29:02;;;;;;;6.10;5.50;;;;;19.90;100017.00;;;;2071439;28;20222;-71
2021/04/30 02:30:04;;;;;;;6.50;5.70;;;;;19.90;100024.00;;;;2071085;28;20215;-71
2021/04/30 02:31:04;;;;;;;5.78;5.28;;;;;19.90;100018.00;;;;2070898;28;20629;-71
2021/04/30 02:32:05;;;;;;;7.60;5.63;;;;;19.90;100022.00;;;;2071489;28;20264;-72
2021/04/30 02:33:05;;;;;;;7.57;5.47;;;;;19.90;100027.00;;;;2078940;28;20220;-71
2021/04/30 02:34:06;;;;;;;6.63;5.83;;;;;19.90;100021.00;;;;2071358;28;20302;-71
2021/04/30 02:35:08;;;;;;;6.13;5.53;;;;;19.90;100026.00;;;;2079400;28;20213;-72
2021/04/30 02:36:08;;;;;;;6.78;6.18;;;;;19.90;100013.00;;;;2071381;28;20297;-71
2021/04/30 02:37:09;;;;;;;6.53;5.37;;;;;19.90;100023.00;;;;2063125;28;20218;-71
2021/04/30 02:38:10;;;;;;;6.00;5.50;;;;;19.90;100010.00;;;;2079401;28;20237;-71
2021/04/30 02:39:10;;;;;;;6.40;5.80;;;;;19.90;100031.00;;;;2071208;28;20238;-71
2021/04/30 02:40:11;;;;;;;6.63;5.97;;;;;19.90;100021.00;;;;2071410;28;20211;-70
2021/04/30 02:41:12;;;;;;;6.07;5.57;;;;;19.90;100022.00;;;;2079567;28;20217;-71
2021/04/30 02:42:12;;;;;;;5.90;5.40;;;;;19.90;100022.00;;;;2071314;28;20293;-71
2021/04/30 02:43:14;;;;;;;6.03;5.43;;;;;19.90;100026.00;;;;2062869;28;20251;-71
2021/04/30 02:44:15;;;;;;;5.95;5.45;;;;;19.90;100027.00;;;;2071486;28;20214;-71
2021/04/30 02:45:16;;;;;;;6.00;5.40;;;;;19.90;100023.00;;;;2071470;28;20213;-71
2021/04/30 02:46:16;;;;;;;5.90;5.32;;;;;19.90;100030.00;;;;2063027;28;20717;-71
2021/04/30 02:47:17;;;;;;;7.50;6.00;;;;;19.90;100030.00;;;;2071290;28;20211;-70
2021/04/30 02:48:26;;;;;;;5.77;5.27;;;;;19.90;100022.00;;;;2071231;28;20222;-71
2021/04/30 02:49:38;;;;;;;6.00;5.40;;;;;19.90;100035.00;;;;2064968;28;20217;-71
2021/04/30 02:50:39;;;;;;;6.45;5.68;;;;;19.90;100025.00;;;;2079647;28;20216;-71
2021/04/30 02:51:40;;;;;;;6.93;5.80;;;;;19.90;100033.00;;;;2079462;28;20216;-72
2021/04/30 02:52:40;;;;;;;7.03;6.33;;;;;19.90;100029.00;;;;2079296;28;20449;-71
2021/04/30 02:53:42;;;;;;;5.60;5.10;;;;;19.90;100029.00;;;;2079125;28;20209;-72
2021/04/30 02:54:43;;;;;;;6.45;5.80;;;;;19.90;100023.00;;;;2079179;28;20214;-71
2021/04/30 02:55:43;;;;;;;7.25;6.38;;;;;19.90;100030.00;;;;2071269;28;20225;-71
2021/04/30 02:56:43;;;;;;;6.30;5.60;;;;;19.90;100034.00;;;;2071264;28;20241;-72
2021/04/30 02:57:44;;;;;;;6.20;5.60;;;;;19.90;100027.00;;;;2079463;28;20221;-71
2021/04/30 02:58:44;;;;;;;6.67;6.07;;;;;19.90;100025.00;;;;2071322;28;20692;-71
2021/04/30 02:59:45;;;;;;;6.13;5.53;;;;;19.90;100029.00;;;;2063303;28;20372;-71
2021/04/30 03:00:45;;;;;;;6.40;5.80;;;;;19.90;100029.00;;;;2079346;28;20735;-71
2021/04/30 03:01:46;;;;;;;8.00;5.50;;;;;19.90;100023.00;;;;2071129;28;20349;-71
2021/04/30 03:02:46;;;;;;;7.10;6.40;;;;;19.90;100029.00;;;;2069238;28;20221;-71
2021/04/30 03:03:46;;;;;;;5.77;5.27;;;;;19.90;100020.00;;;;2078937;28;20246;-71
2021/04/30 03:04:47;;;;;;;6.13;5.43;;;;;19.90;100025.00;;;;2079383;28;20356;-71
2021/04/30 03:05:47;;;;;;;6.10;5.50;;;;;19.90;100027.00;;;;2071254;28;20224;-71
2021/04/30 03:06:47;;;;;;;6.13;5.53;;;;;19.90;100016.00;;;;2070876;28;20210;-71
2021/04/30 03:07:48;;;;;;;5.93;5.00;;;;;19.90;100017.00;;;;2071100;28;20254;-72
2021/04/30 03:08:52;;;;;;;5.30;4.80;;;;;19.90;100025.00;;;;2071766;28;20222;-71
2021/04/30 03:09:52;;;;;;;7.50;5.40;;;;;19.90;100022.00;;;;2072692;28;20214;-71
2021/04/30 03:10:53;;;;;;;5.90;5.40;;;;;19.90;100017.00;;;;2080897;28;20590;-71
2021/04/30 03:11:53;;;;;;;5.20;4.70;;;;;19.90;100028.00;;;;2081724;28;20217;-71
2021/04/30 03:12:53;;;;;;;5.60;5.00;;;;;19.90;100024.00;;;;2072477;28;20245;-71
2021/04/30 03:13:54;;;;;;;6.60;4.77;;;;;19.80;100022.00;;;;2072486;28;20301;-71
2021/04/30 03:14:54;;;;;;;4.87;4.13;;;;;19.90;100022.00;;;;2080813;28;20758;-70
2021/04/30 03:15:54;;;;;;;5.87;5.30;;;;;19.90;100026.00;;;;2071858;28;20765;-71
2021/04/30 03:16:55;;;;;;;5.60;4.90;;;;;19.90;100034.00;;;;2072651;28;20261;-71
2021/04/30 03:17:55;;;;;;;6.57;5.40;;;;;19.90;100032.00;;;;2080984;28;20734;-72
2021/04/30 03:18:55;;;;;;;4.90;4.50;;;;;19.90;100025.00;;;;2080760;28;20724;-71
2021/04/30 03:19:56;;;;;;;5.90;5.30;;;;;19.90;100034.00;;;;2072640;28;20301;-71
2021/04/30 03:20:56;;;;;;;5.63;5.13;;;;;19.90;100020.00;;;;2064589;28;20216;-71
2021/04/30 03:21:56;;;;;;;5.67;5.10;;;;;19.90;100028.00;;;;2072792;28;20241;-72
2021/04/30 03:22:57;;;;;;;6.57;5.30;;;;;19.90;100040.00;;;;2081260;28;20218;-71
2021/04/30 03:23:57;;;;;;;6.10;5.40;;;;;19.90;100032.00;;;;2081420;28;20214;-71
2021/04/30 03:24:58;;;;;;;5.70;5.20;;;;;19.90;100033.00;;;;2071883;28;20218;-71
2021/04/30 03:25:59;;;;;;;5.03;4.60;;;;;19.80;100031.00;;;;2072466;28;20732;-72
2021/04/30 03:27:00;;;;;;;4.88;4.47;;;;;19.80;100035.00;;;;2080274;28;20217;-71
2021/04/30 03:28:00;;;;;;;6.50;5.67;;;;;19.80;100023.00;;;;2081565;28;20213;-71
2021/04/30 03:29:01;;;;;;;5.37;4.87;;;;;19.80;100037.00;;;;2081463;28;20206;-72
2021/04/30 03:30:01;;;;;;;5.80;5.30;;;;;19.80;100036.00;;;;2081503;28;20206;-71
2021/04/30 03:31:01;;;;;;;5.37;4.93;;;;;19.80;100027.00;;;;2081422;28;20592;-71
2021/04/30 03:32:02;;;;;;;6.73;5.43;;;;;19.80;100035.00;;;;2081424;28;20218;-71
2021/04/30 03:33:02;;;;;;;5.50;5.00;;;;;19.80;100028.00;;;;2080723;28;20221;-71
2021/04/30 03:34:02;;;;;;;5.30;4.80;;;;;19.80;100037.00;;;;2081168;28;20209;-71
2021/04/30 03:35:04;;;;;;;5.73;5.03;;;;;19.80;100033.00;;;;2080715;28;20279;-71
2021/04/30 03:36:05;;;;;;;5.60;4.85;;;;;19.80;100035.00;;;;2064532;28;20300;-71
2021/04/30 03:37:06;;;;;;;5.35;4.85;;;;;19.80;100035.00;;;;2071819;28;20211;-71
2021/04/30 03:38:06;;;;;;;5.10;4.67;;;;;19.80;100034.00;;;;2081407;28;20294;-72
2021/04/30 03:39:07;;;;;;;6.37;5.77;;;;;19.80;100032.00;;;;2081316;28;20210;-71
2021/04/30 03:40:08;;;;;;;6.88;5.22;;;;;19.80;100034.00;;;;2080039;28;20260;-71
2021/04/30 03:41:08;;;;;;;5.23;4.50;;;;;19.80;100033.00;;;;2080711;28;20206;-71
2021/04/30 03:42:09;;;;;;;5.03;4.53;;;;;19.80;100035.00;;;;2080372;28;20456;-71
2021/04/30 03:43:09;;;;;;;5.90;5.40;;;;;19.80;100036.00;;;;2080490;28;20276;-71
2021/04/30 03:44:09;;;;;;;5.23;4.73;;;;;19.80;100042.00;;;;2080817;28;20218;-71
2021/04/30 03:45:11;;;;;;;5.30;4.90;;;;;19.80;100030.00;;;;2080962;28;20719;-71
2021/04/30 03:46:11;;;;;;;5.90;4.88;;;;;19.80;100021.00;;;;2081434;28;20214;-71
2021/04/30 03:47:11;;;;;;;6.13;5.53;;;;;19.80;100039.00;;;;2080878;28;20305;-71
2021/04/30 03:48:12;;;;;;;5.30;4.90;;;;;19.80;100032.00;;;;2072470;28;20657;-71
2021/04/30 03:49:12;;;;;;;5.93;5.43;;;;;19.80;100038.00;;;;2072497;28;20210;-71
2021/04/30 03:50:12;;;;;;;5.50;5.00;;;;;19.80;100035.00;;;;2072298;28;20701;-71
2021/04/30 03:51:13;;;;;;;5.60;5.00;;;;;19.80;100032.00;;;;2080486;28;20584;-71
2021/04/30 03:52:13;;;;;;;5.73;5.23;;;;;19.80;100036.00;;;;2080793;28;20210;-71
2021/04/30 03:53:14;;;;;;;5.50;5.00;;;;;19.80;100034.00;;;;2080370;28;20313;-71
2021/04/30 03:54:14;;;;;;;5.30;4.80;;;;;19.80;100036.00;;;;2084621;28;20202;-71
2021/04/30 03:55:14;;;;;;;5.90;5.30;;;;;19.80;100048.00;;;;2080709;28;20676;-71
2021/04/30 03:56:15;;;;;;;5.60;5.10;;;;;19.80;100045.00;;;;2071880;28;21190;-71
2021/04/30 03:57:15;;;;;;;4.90;4.50;;;;;19.80;100046.00;;;;2056247;28;20220;-70
2021/04/30 03:58:15;;;;;;;6.00;5.40;;;;;19.80;100042.00;;;;2072289;28;20341;-70
2021/04/30 03:59:16;;;;;;;5.67;5.10;;;;;19.80;100040.00;;;;2079578;28;20217;-71
2021/04/30 04:00:17;;;;;;;5.47;4.97;;;;;19.80;100050.00;;;;2077872;28;20230;-71
2021/04/30 04:01:17;;;;;;;6.00;5.43;;;;;19.80;100048.00;;;;2080481;28;20218;-71
2021/04/30 04:02:17;;;;;;;6.00;4.73;;;;;19.80;100049.00;;;;2071759;28;20461;-71
2021/04/30 04:03:18;;;;;;;5.43;4.93;;;;;19.80;100055.00;;;;2078091;28;20222;-71
2021/04/30 04:04:18;;;;;;;5.90;5.30;;;;;19.80;100061.00;;;;2079690;28;20221;-71
2021/04/30 04:05:19;;;;;;;5.63;5.10;;;;;19.80;100057.00;;;;2069763;28;20692;-71
2021/04/30 04:06:19;;;;;;;6.77;5.20;;;;;19.80;100052.00;;;;2072047;28;20646;-71
2021/04/30 04:07:20;;;;;;;6.00;5.30;;;;;19.80;100053.00;;;;2072325;28;20222;-71
2021/04/30 04:08:20;;;;;;;5.27;4.77;;;;;19.80;100054.00;;;;2079642;28;20218;-71
2021/04/30 04:09:20;;;;;;;5.20;4.80;;;;;19.80;100051.00;;;;2076370;28;20219;-71
2021/04/30 04:10:21;;;;;;;5.27;4.87;;;;;19.80;100056.00;;;;2079927;28;20282;-71
2021/04/30 04:11:21;;;;;;;5.60;5.10;;;;;19.80;100054.00;;;;2071587;28;20729;-71
2021/04/30 04:12:21;;;;;;;6.00;5.40;;;;;19.80;100056.00;;;;2079935;28;20214;-71
2021/04/30 04:13:23;;;;;;;6.57;5.50;;;;;19.80;100055.00;;;;2079557;28;20668;-71
2021/04/30 04:14:24;;;;;;;5.85;5.35;;;;;19.80;100066.00;;;;2063973;28;20274;-71
2021/04/30 04:15:24;;;;;;;5.40;4.90;;;;;19.80;100061.00;;;;2063399;28;20238;-71
2021/04/30 04:16:25;;;;;;;5.43;4.97;;;;;19.80;100074.00;;;;2079729;28;20246;-71
2021/04/30 04:17:25;;;;;;;6.13;5.50;;;;;19.80;100076.00;;;;2080903;28;20684;-72
2021/04/30 04:18:25;;;;;;;5.80;4.83;;;;;19.80;100080.00;;;;2081096;28;20237;-72
2021/04/30 04:19:26;;;;;;;5.67;5.00;;;;;19.80;100081.00;;;;2079797;28;20221;-71
2021/04/30 04:20:26;;;;;;;6.00;5.50;;;;;19.80;100087.00;;;;2080404;28;20244;-71
2021/04/30 04:21:27;;;;;;;5.70;5.10;;;;;19.80;100084.00;;;;2081028;28;20209;-71
2021/04/30 04:22:27;;;;;;;5.77;5.27;;;;;19.80;100080.00;;;;2081098;28;20301;-71
2021/04/30 04:23:27;;;;;;;5.67;5.17;;;;;19.80;100084.00;;;;2071925;28;20265;-71
2021/04/30 04:24:27;;;;;;;6.03;5.13;;;;;19.80;100084.00;;;;2063940;28;20215;-71
2021/04/30 04:25:28;;;;;;;5.93;5.37;;;;;19.80;100074.00;;;;2077456;28;20665;-71
2021/04/30 04:26:28;;;;;;;6.17;5.20;;;;;19.80;100068.00;;;;2079025;28;20903;-71
2021/04/30 04:27:29;;;;;;;5.70;5.20;;;;;19.80;100084.00;;;;2068579;28;20715;-71
2021/04/30 04:28:29;;;;;;;5.37;4.87;;;;;19.80;100081.00;;;;2080136;28;20680;-71
2021/04/30 04:29:29;;;;;;;6.00;5.40;;;;;19.80;100082.00;;;;2080596;28;20716;-72
2021/04/30 04:30:30;;;;;;;6.27;5.03;;;;;19.80;100062.00;;;;2078436;28;20604;-71
2021/04/30 04:31:30;;;;;;;6.13;5.53;;;;;19.80;100081.00;;;;2079687;28;20297;-71
2021/04/30 04:32:30;;;;;;;5.70;5.07;;;;;19.80;100080.00;;;;2080423;28;20696;-71
2021/04/30 04:33:32;;;;;;;6.30;5.70;;;;;19.80;100082.00;;;;2080678;28;20900;-71
2021/04/30 04:34:32;;;;;;;6.30;5.28;;;;;19.80;100070.00;;;;2080310;28;20627;-71
2021/04/30 04:35:32;;;;;;;6.20;5.60;;;;;19.80;100081.00;;;;2045978;28;20223;-71
2021/04/30 04:36:33;;;;;;;6.50;4.87;;;;;19.80;100076.00;;;;2055999;28;20220;-71
2021/04/30 04:37:33;;;;;;;5.83;5.20;;;;;19.80;100077.00;;;;2079214;28;20222;-70
2021/04/30 04:38:34;;;;;;;6.53;5.33;;;;;19.70;100082.00;;;;2079718;28;20218;-71
2021/04/30 04:39:34;;;;;;;6.20;4.57;;;;;19.70;100074.00;;;;2079560;28;20222;-71
2021/04/30 04:40:34;;;;;;;6.33;5.13;;;;;19.70;100078.00;;;;2079265;28;20220;-70
2021/04/30 04:41:35;;;;;;;6.37;4.60;;;;;19.70;100074.00;;;;2080430;28;20226;-71
2021/04/30 04:42:35;;;;;;;5.63;5.13;;;;;19.70;100078.00;;;;2079620;28;20296;-71
2021/04/30 04:43:35;;;;;;;6.47;5.87;;;;;19.60;100064.00;;;;2079223;28;20241;-71
2021/04/30 04:44:36;;;;;;;7.30;4.90;;;;;19.70;100064.00;;;;2079589;28;20220;-72
2021/04/30 04:45:36;;;;;;;5.70;5.13;;;;;19.70;100073.00;;;;2075937;28;20648;-71
2021/04/30 04:46:37;;;;;;;6.50;4.97;;;;;19.70;100069.00;;;;2079510;28;20221;-71
2021/04/30 04:47:37;;;;;;;5.73;5.23;;;;;19.70;100063.00;;;;2080326;28;20731;-71
2021/04/30 04:48:37;;;;;;;6.33;5.73;;;;;19.70;100060.00;;;;2079403;28;20716;-71
2021/04/30 04:49:38;;;;;;;7.00;5.27;;;;;19.70;100068.00;;;;2079153;28;20221;-71
2021/04/30 04:50:38;;;;;;;5.80;5.10;;;;;19.70;100077.00;;;;2079358;28;20292;-71
2021/04/30 04:51:38;;;;;;;6.97;5.40;;;;;19.70;100082.00;;;;2080135;28;20283;-71
2021/04/30 04:52:39;;;;;;;5.60;5.10;;;;;19.70;100073.00;;;;2079577;28;20210;-71
2021/04/30 04:53:39;;;;;;;5.10;4.60;;;;;19.70;100080.00;;;;2071218;28;20638;-71
2021/04/30 04:54:40;;;;;;;6.10;5.60;;;;;19.70;100080.00;;;;2071421;28;20325;-71
2021/04/30 04:55:40;;;;;;;5.83;5.20;;;;;19.70;100073.00;;;;2076142;28;20222;-71
2021/04/30 04:56:41;;;;;;;7.20;6.00;;;;;19.70;100083.00;;;;2080103;28;20263;-71
2021/04/30 04:57:42;;;;;;;5.80;5.25;;;;;19.70;100081.00;;;;2079511;28;20222;-71
2021/04/30 04:58:42;;;;;;;5.80;5.30;;;;;19.70;100090.00;;;;2079554;28;20226;-71
2021/04/30 04:59:43;;;;;;;6.00;5.50;;;;;19.70;100084.00;;;;2069813;28;20609;-71
2021/04/30 05:00:43;;;;;;;5.20;4.80;;;;;19.70;100084.00;;;;2071534;28;20226;-69
2021/04/30 05:01:43;;;;;;;6.10;5.60;;;;;19.70;100077.00;;;;2072835;28;20265;-71